sensor_id;sensor_type;location;lat;lon;timestamp;temperature;humidity
68804;SHT31;55787;52.678;13.314;2023-02-20T00:00:25;0.94;92.80
68804;SHT31;55787;52.678;13.314;2023-02-20T00:02:52;0.89;92.42
68804;SHT31;55787;52.678;13.314;2023-02-20T00:05:19;0.87;92.70
68804;SHT31;55787;52.678;13.314;2023-02-20T00:07:46;0.89;92.47
68804;SHT31;55787;52.678;13.314;2023-02-20T00:10:14;0.77;92.88
68804;SHT31;55787;52.678;13.314;2023-02-20T00:12:42;0.80;93.53
68804;SHT31;55787;52.678;13.314;2023-02-20T00:15:09;0.70;93.28
68804;SHT31;55787;52.678;13.314;2023-02-20T00:17:37;0.58;93.35
68804;SHT31;55787;52.678;13.314;2023-02-20T00:20:04;0.68;94.10
68804;SHT31;55787;52.678;13.314;2023-02-20T00:22:31;0.63;94.35
68804;SHT31;55787;52.678;13.314;2023-02-20T00:24:58;0.68;94.38
68804;SHT31;55787;52.678;13.314;2023-02-20T00:27:25;0.66;94.10
68804;SHT31;55787;52.678;13.314;2023-02-20T00:29:51;0.70;94.20
68804;SHT31;55787;52.678;13.314;2023-02-20T00:32:18;0.73;94.12
68804;SHT31;55787;52.678;13.314;2023-02-20T00:34:45;0.72;94.18
68804;SHT31;55787;52.678;13.314;2023-02-20T00:37:11;0.68;94.17
68804;SHT31;55787;52.678;13.314;2023-02-20T00:39:38;0.58;94.12
68804;SHT31;55787;52.678;13.314;2023-02-20T00:42:05;0.50;94.19
68804;SHT31;55787;52.678;13.314;2023-02-20T00:44:31;0.42;94.63
68804;SHT31;55787;52.678;13.314;2023-02-20T00:46:58;0.41;95.08
68804;SHT31;55787;52.678;13.314;2023-02-20T00:49:25;0.37;94.97
68804;SHT31;55787;52.678;13.314;2023-02-20T00:51:51;0.37;95.62
68804;SHT31;55787;52.678;13.314;2023-02-20T00:54:18;0.45;95.64
68804;SHT31;55787;52.678;13.314;2023-02-20T00:56:45;0.52;95.63
68804;SHT31;55787;52.678;13.314;2023-02-20T00:59:12;0.58;95.47
68804;SHT31;55787;52.678;13.314;2023-02-20T01:01:38;0.55;95.55
68804;SHT31;55787;52.678;13.314;2023-02-20T01:04:05;0.53;95.51
68804;SHT31;55787;52.678;13.314;2023-02-20T01:06:31;0.66;95.40
68804;SHT31;55787;52.678;13.314;2023-02-20T01:08:58;0.72;95.45
68804;SHT31;55787;52.678;13.314;2023-02-20T01:11:25;0.81;95.26
68804;SHT31;55787;52.678;13.314;2023-02-20T01:13:52;0.97;94.60
68804;SHT31;55787;52.678;13.314;2023-02-20T01:16:18;1.14;94.26
68804;SHT31;55787;52.678;13.314;2023-02-20T01:18:48;1.21;93.80
68804;SHT31;55787;52.678;13.314;2023-02-20T01:21:15;1.30;93.57
68804;SHT31;55787;52.678;13.314;2023-02-20T01:23:42;1.28;93.43
68804;SHT31;55787;52.678;13.314;2023-02-20T01:26:08;1.30;93.53
68804;SHT31;55787;52.678;13.314;2023-02-20T01:28:35;1.34;93.52
68804;SHT31;55787;52.678;13.314;2023-02-20T01:31:02;1.35;93.66
68804;SHT31;55787;52.678;13.314;2023-02-20T01:33:28;1.51;92.99
68804;SHT31;55787;52.678;13.314;2023-02-20T01:35:55;1.48;92.95
68804;SHT31;55787;52.678;13.314;2023-02-20T01:38:22;1.51;92.84
68804;SHT31;55787;52.678;13.314;2023-02-20T01:40:48;1.51;93.09
68804;SHT31;55787;52.678;13.314;2023-02-20T01:43:15;1.55;92.87
68804;SHT31;55787;52.678;13.314;2023-02-20T01:45:43;1.58;92.63
68804;SHT31;55787;52.678;13.314;2023-02-20T01:48:18;1.59;92.71
68804;SHT31;55787;52.678;13.314;2023-02-20T01:50:46;1.68;92.56
68804;SHT31;55787;52.678;13.314;2023-02-20T01:53:18;1.68;92.74
68804;SHT31;55787;52.678;13.314;2023-02-20T01:58:26;1.69;92.74
68804;SHT31;55787;52.678;13.314;2023-02-20T02:00:56;1.72;92.84
68804;SHT31;55787;52.678;13.314;2023-02-20T02:03:28;1.70;92.68
68804;SHT31;55787;52.678;13.314;2023-02-20T02:06:03;1.75;92.52
68804;SHT31;55787;52.678;13.314;2023-02-20T02:08:35;1.79;92.72
68804;SHT31;55787;52.678;13.314;2023-02-20T02:11:07;1.83;92.43
68804;SHT31;55787;52.678;13.314;2023-02-20T02:13:37;1.89;92.43
68804;SHT31;55787;52.678;13.314;2023-02-20T02:16:23;1.90;92.44
68804;SHT31;55787;52.678;13.314;2023-02-20T02:32:34;2.23;91.90
68804;SHT31;55787;52.678;13.314;2023-02-20T02:35:19;2.24;91.94
68804;SHT31;55787;52.678;13.314;2023-02-20T02:43:15;2.38;91.39
68804;SHT31;55787;52.678;13.314;2023-02-20T02:48:20;2.52;91.07
68804;SHT31;55787;52.678;13.314;2023-02-20T02:50:50;2.51;91.25
68804;SHT31;55787;52.678;13.314;2023-02-20T02:53:19;2.50;91.34
68804;SHT31;55787;52.678;13.314;2023-02-20T02:55:46;2.57;91.26
68804;SHT31;55787;52.678;13.314;2023-02-20T02:58:14;2.61;91.36
68804;SHT31;55787;52.678;13.314;2023-02-20T03:03:23;2.70;90.97
68804;SHT31;55787;52.678;13.314;2023-02-20T03:05:54;2.65;91.17
68804;SHT31;55787;52.678;13.314;2023-02-20T03:08:33;2.70;91.24
68804;SHT31;55787;52.678;13.314;2023-02-20T03:11:06;2.78;91.02
68804;SHT31;55787;52.678;13.314;2023-02-20T03:13:39;2.75;91.02
68804;SHT31;55787;52.678;13.314;2023-02-20T03:16:31;2.79;90.83
68804;SHT31;55787;52.678;13.314;2023-02-20T03:19:04;2.81;90.87
68804;SHT31;55787;52.678;13.314;2023-02-20T03:21:34;2.89;90.86
68804;SHT31;55787;52.678;13.314;2023-02-20T03:24:02;2.98;90.62
68804;SHT31;55787;52.678;13.314;2023-02-20T03:26:34;3.01;90.69
68804;SHT31;55787;52.678;13.314;2023-02-20T03:29:13;2.99;90.70
68804;SHT31;55787;52.678;13.314;2023-02-20T03:31:50;3.02;90.69
68804;SHT31;55787;52.678;13.314;2023-02-20T03:34:38;3.01;90.99
68804;SHT31;55787;52.678;13.314;2023-02-20T03:37:27;3.05;90.94
68804;SHT31;55787;52.678;13.314;2023-02-20T03:40:15;3.10;90.78
68804;SHT31;55787;52.678;13.314;2023-02-20T03:43:08;3.19;90.68
68804;SHT31;55787;52.678;13.314;2023-02-20T03:45:59;3.20;91.11
68804;SHT31;55787;52.678;13.314;2023-02-20T03:51:02;3.24;90.84
68804;SHT31;55787;52.678;13.314;2023-02-20T03:53:29;3.39;90.80
68804;SHT31;55787;52.678;13.314;2023-02-20T03:55:58;3.41;90.60
68804;SHT31;55787;52.678;13.314;2023-02-20T03:58:27;3.39;90.83
68804;SHT31;55787;52.678;13.314;2023-02-20T04:00:57;3.43;91.03
68804;SHT31;55787;52.678;13.314;2023-02-20T04:03:30;3.47;90.90
68804;SHT31;55787;52.678;13.314;2023-02-20T04:05:59;3.56;90.88
68804;SHT31;55787;52.678;13.314;2023-02-20T04:08:41;3.60;90.61
68804;SHT31;55787;52.678;13.314;2023-02-20T04:11:30;3.64;90.71
68804;SHT31;55787;52.678;13.314;2023-02-20T04:13:58;3.67;90.71
68804;SHT31;55787;52.678;13.314;2023-02-20T04:16:27;3.71;90.80
68804;SHT31;55787;52.678;13.314;2023-02-20T04:18:54;3.77;90.95
68804;SHT31;55787;52.678;13.314;2023-02-20T04:21:34;3.85;90.77
68804;SHT31;55787;52.678;13.314;2023-02-20T04:24:08;3.85;90.83
68804;SHT31;55787;52.678;13.314;2023-02-20T04:26:36;3.94;90.75
68804;SHT31;55787;52.678;13.314;2023-02-20T04:29:04;3.94;90.74
68804;SHT31;55787;52.678;13.314;2023-02-20T04:31:31;3.97;90.75
68804;SHT31;55787;52.678;13.314;2023-02-20T04:33:57;4.03;90.80
68804;SHT31;55787;52.678;13.314;2023-02-20T04:36:25;4.09;90.60
68804;SHT31;55787;52.678;13.314;2023-02-20T04:38:52;4.08;90.81
68804;SHT31;55787;52.678;13.314;2023-02-20T04:41:19;4.11;90.79
68804;SHT31;55787;52.678;13.314;2023-02-20T04:43:45;4.13;90.71
68804;SHT31;55787;52.678;13.314;2023-02-20T04:46:13;4.21;90.68
68804;SHT31;55787;52.678;13.314;2023-02-20T04:48:40;4.18;90.74
68804;SHT31;55787;52.678;13.314;2023-02-20T04:51:07;4.25;90.74
68804;SHT31;55787;52.678;13.314;2023-02-20T04:53:33;4.31;90.51
68804;SHT31;55787;52.678;13.314;2023-02-20T04:56:00;4.43;90.17
68804;SHT31;55787;52.678;13.314;2023-02-20T04:58:27;4.40;90.26
68804;SHT31;55787;52.678;13.314;2023-02-20T05:00:53;4.46;90.20
68804;SHT31;55787;52.678;13.314;2023-02-20T05:03:20;4.46;90.42
68804;SHT31;55787;52.678;13.314;2023-02-20T05:05:47;4.42;90.50
68804;SHT31;55787;52.678;13.314;2023-02-20T05:08:13;4.43;90.75
68804;SHT31;55787;52.678;13.314;2023-02-20T05:10:40;4.42;90.93
68804;SHT31;55787;52.678;13.314;2023-02-20T05:13:07;4.45;90.85
68804;SHT31;55787;52.678;13.314;2023-02-20T05:15:33;4.52;91.05
68804;SHT31;55787;52.678;13.314;2023-02-20T05:18:00;4.48;91.02
68804;SHT31;55787;52.678;13.314;2023-02-20T05:20:27;4.50;91.03
68804;SHT31;55787;52.678;13.314;2023-02-20T05:23:12;4.59;90.86
68804;SHT31;55787;52.678;13.314;2023-02-20T05:25:39;4.57;90.98
68804;SHT31;55787;52.678;13.314;2023-02-20T05:28:06;4.62;91.20
68804;SHT31;55787;52.678;13.314;2023-02-20T05:30:32;4.57;91.45
68804;SHT31;55787;52.678;13.314;2023-02-20T05:32:59;4.54;92.14
68804;SHT31;55787;52.678;13.314;2023-02-20T05:35:26;4.54;92.46
68804;SHT31;55787;52.678;13.314;2023-02-20T05:37:52;4.57;92.41
68804;SHT31;55787;52.678;13.314;2023-02-20T05:40:19;4.52;92.94
68804;SHT31;55787;52.678;13.314;2023-02-20T05:42:46;4.50;93.43
68804;SHT31;55787;52.678;13.314;2023-02-20T05:45:13;4.57;93.08
68804;SHT31;55787;52.678;13.314;2023-02-20T05:47:40;4.64;93.18
68804;SHT31;55787;52.678;13.314;2023-02-20T05:50:07;4.54;93.24
68804;SHT31;55787;52.678;13.314;2023-02-20T05:52:34;4.53;93.75
68804;SHT31;55787;52.678;13.314;2023-02-20T05:55:01;4.53;93.99
68804;SHT31;55787;52.678;13.314;2023-02-20T05:57:27;4.54;94.05
68804;SHT31;55787;52.678;13.314;2023-02-20T05:59:54;4.50;94.47
68804;SHT31;55787;52.678;13.314;2023-02-20T06:02:21;4.53;94.40
68804;SHT31;55787;52.678;13.314;2023-02-20T06:04:48;4.54;94.39
68804;SHT31;55787;52.678;13.314;2023-02-20T06:07:15;4.52;94.31
68804;SHT31;55787;52.678;13.314;2023-02-20T06:09:42;4.49;94.34
68804;SHT31;55787;52.678;13.314;2023-02-20T06:12:10;4.49;94.71
68804;SHT31;55787;52.678;13.314;2023-02-20T06:14:37;4.54;94.30
68804;SHT31;55787;52.678;13.314;2023-02-20T06:17:03;4.60;93.77
68804;SHT31;55787;52.678;13.314;2023-02-20T06:19:30;4.62;93.85
68804;SHT31;55787;52.678;13.314;2023-02-20T06:21:57;4.67;93.73
68804;SHT31;55787;52.678;13.314;2023-02-20T06:24:24;4.67;93.83
68804;SHT31;55787;52.678;13.314;2023-02-20T06:26:51;4.67;93.79
68804;SHT31;55787;52.678;13.314;2023-02-20T06:29:18;4.64;94.01
68804;SHT31;55787;52.678;13.314;2023-02-20T06:31:45;4.64;93.96
68804;SHT31;55787;52.678;13.314;2023-02-20T06:34:12;4.74;93.54
68804;SHT31;55787;52.678;13.314;2023-02-20T06:36:40;4.81;93.35
68804;SHT31;55787;52.678;13.314;2023-02-20T06:39:09;4.79;93.36
68804;SHT31;55787;52.678;13.314;2023-02-20T06:41:36;4.80;93.56
68804;SHT31;55787;52.678;13.314;2023-02-20T06:44:03;4.84;93.40
68804;SHT31;55787;52.678;13.314;2023-02-20T06:46:30;4.85;93.05
68804;SHT31;55787;52.678;13.314;2023-02-20T06:48:58;4.88;93.15
68804;SHT31;55787;52.678;13.314;2023-02-20T06:51:30;4.90;92.48
68804;SHT31;55787;52.678;13.314;2023-02-20T06:53:58;4.95;92.53
68804;SHT31;55787;52.678;13.314;2023-02-20T06:56:28;4.98;92.25
68804;SHT31;55787;52.678;13.314;2023-02-20T06:58:55;5.01;91.82
68804;SHT31;55787;52.678;13.314;2023-02-20T07:01:25;5.01;91.82
68804;SHT31;55787;52.678;13.314;2023-02-20T07:03:52;5.00;91.78
68804;SHT31;55787;52.678;13.314;2023-02-20T07:06:22;5.02;91.60
68804;SHT31;55787;52.678;13.314;2023-02-20T07:08:49;5.08;91.14
68804;SHT31;55787;52.678;13.314;2023-02-20T07:11:17;5.11;91.24
68804;SHT31;55787;52.678;13.314;2023-02-20T07:13:44;5.12;90.94
68804;SHT31;55787;52.678;13.314;2023-02-20T07:16:11;5.18;90.44
68804;SHT31;55787;52.678;13.314;2023-02-20T07:18:38;5.25;90.33
68804;SHT31;55787;52.678;13.314;2023-02-20T07:21:06;5.30;90.15
68804;SHT31;55787;52.678;13.314;2023-02-20T07:23:32;5.42;89.76
68804;SHT31;55787;52.678;13.314;2023-02-20T07:25:59;5.46;89.25
68804;SHT31;55787;52.678;13.314;2023-02-20T07:28:25;5.45;89.27
68804;SHT31;55787;52.678;13.314;2023-02-20T07:30:52;5.48;89.39
68804;SHT31;55787;52.678;13.314;2023-02-20T07:33:19;5.52;88.82
68804;SHT31;55787;52.678;13.314;2023-02-20T07:35:46;5.55;89.09
68804;SHT31;55787;52.678;13.314;2023-02-20T07:38:12;5.63;88.45
68804;SHT31;55787;52.678;13.314;2023-02-20T07:40:39;5.70;87.97
68804;SHT31;55787;52.678;13.314;2023-02-20T07:43:06;5.74;87.64
68804;SHT31;55787;52.678;13.314;2023-02-20T07:45:33;5.72;87.94
68804;SHT31;55787;52.678;13.314;2023-02-20T07:47:59;5.76;88.05
68804;SHT31;55787;52.678;13.314;2023-02-20T07:50:26;5.79;87.77
68804;SHT31;55787;52.678;13.314;2023-02-20T07:52:53;5.83;87.21
68804;SHT31;55787;52.678;13.314;2023-02-20T07:55:20;5.85;87.34
68804;SHT31;55787;52.678;13.314;2023-02-20T07:57:47;5.87;86.72
68804;SHT31;55787;52.678;13.314;2023-02-20T08:00:17;5.90;86.62
68804;SHT31;55787;52.678;13.314;2023-02-20T08:02:44;5.96;86.61
68804;SHT31;55787;52.678;13.314;2023-02-20T08:05:11;6.03;85.99
68804;SHT31;55787;52.678;13.314;2023-02-20T08:07:43;6.03;85.99
68804;SHT31;55787;52.678;13.314;2023-02-20T08:10:11;6.03;86.57
68804;SHT31;55787;52.678;13.314;2023-02-20T08:12:38;6.07;86.01
68804;SHT31;55787;52.678;13.314;2023-02-20T08:15:04;6.13;85.71
68804;SHT31;55787;52.678;13.314;2023-02-20T08:17:31;6.14;85.32
68804;SHT31;55787;52.678;13.314;2023-02-20T08:20:12;6.18;85.24
68804;SHT31;55787;52.678;13.314;2023-02-20T08:22:39;6.17;85.10
68804;SHT31;55787;52.678;13.314;2023-02-20T08:25:08;6.18;85.08
68804;SHT31;55787;52.678;13.314;2023-02-20T08:27:35;6.21;84.90
68804;SHT31;55787;52.678;13.314;2023-02-20T08:30:05;6.21;84.54
68804;SHT31;55787;52.678;13.314;2023-02-20T08:32:32;6.27;84.29
68804;SHT31;55787;52.678;13.314;2023-02-20T08:34:59;6.30;83.96
68804;SHT31;55787;52.678;13.314;2023-02-20T08:37:26;6.27;84.19
68804;SHT31;55787;52.678;13.314;2023-02-20T08:39:52;6.32;84.46
68804;SHT31;55787;52.678;13.314;2023-02-20T08:42:19;6.35;84.54
68804;SHT31;55787;52.678;13.314;2023-02-20T08:44:46;6.41;83.72
68804;SHT31;55787;52.678;13.314;2023-02-20T08:47:12;6.42;84.03
68804;SHT31;55787;52.678;13.314;2023-02-20T08:49:39;6.41;83.70
68804;SHT31;55787;52.678;13.314;2023-02-20T08:52:06;6.46;83.84
68804;SHT31;55787;52.678;13.314;2023-02-20T08:54:32;6.58;82.95
68804;SHT31;55787;52.678;13.314;2023-02-20T08:56:59;6.64;83.29
68804;SHT31;55787;52.678;13.314;2023-02-20T08:59:26;6.68;82.95
68804;SHT31;55787;52.678;13.314;2023-02-20T09:01:56;6.73;82.78
68804;SHT31;55787;52.678;13.314;2023-02-20T09:04:22;6.79;82.09
68804;SHT31;55787;52.678;13.314;2023-02-20T09:06:49;6.81;82.63
68804;SHT31;55787;52.678;13.314;2023-02-20T09:09:16;6.89;82.35
68804;SHT31;55787;52.678;13.314;2023-02-20T09:11:43;6.92;82.18
68804;SHT31;55787;52.678;13.314;2023-02-20T09:14:09;6.99;81.63
68804;SHT31;55787;52.678;13.314;2023-02-20T09:16:36;7.03;81.69
68804;SHT31;55787;52.678;13.314;2023-02-20T09:19:08;7.24;81.37
68804;SHT31;55787;52.678;13.314;2023-02-20T09:21:35;7.37;81.68
68804;SHT31;55787;52.678;13.314;2023-02-20T09:24:04;7.38;80.57
68804;SHT31;55787;52.678;13.314;2023-02-20T09:26:31;7.50;80.93
68804;SHT31;55787;52.678;13.314;2023-02-20T09:28:57;7.65;79.78
68804;SHT31;55787;52.678;13.314;2023-02-20T09:31:24;7.60;79.76
68804;SHT31;55787;52.678;13.314;2023-02-20T09:33:51;7.77;80.07
68804;SHT31;55787;52.678;13.314;2023-02-20T09:36:18;7.72;79.46
68804;SHT31;55787;52.678;13.314;2023-02-20T09:38:44;7.78;79.55
68804;SHT31;55787;52.678;13.314;2023-02-20T09:41:22;7.91;79.24
68804;SHT31;55787;52.678;13.314;2023-02-20T09:46:23;8.12;79.20
68804;SHT31;55787;52.678;13.314;2023-02-20T09:49:03;8.12;78.48
68804;SHT31;55787;52.678;13.314;2023-02-20T09:51:38;8.07;78.57
68804;SHT31;55787;52.678;13.314;2023-02-20T09:54:17;8.23;78.58
68804;SHT31;55787;52.678;13.314;2023-02-20T09:56:55;8.21;77.85
68804;SHT31;55787;52.678;13.314;2023-02-20T09:59:32;8.16;77.81
68804;SHT31;55787;52.678;13.314;2023-02-20T10:02:08;8.21;77.92
68804;SHT31;55787;52.678;13.314;2023-02-20T10:04:42;8.36;78.29
68804;SHT31;55787;52.678;13.314;2023-02-20T10:07:31;8.49;78.05
68804;SHT31;55787;52.678;13.314;2023-02-20T10:09:59;8.47;77.35
68804;SHT31;55787;52.678;13.314;2023-02-20T10:12:41;8.39;77.73
68804;SHT31;55787;52.678;13.314;2023-02-20T10:18:18;8.30;78.05
68804;SHT31;55787;52.678;13.314;2023-02-20T10:23:22;8.53;78.35
68804;SHT31;55787;52.678;13.314;2023-02-20T10:25:57;8.65;78.08
68804;SHT31;55787;52.678;13.314;2023-02-20T10:28:25;8.77;77.61
68804;SHT31;55787;52.678;13.314;2023-02-20T10:33:53;8.85;77.47
68804;SHT31;55787;52.678;13.314;2023-02-20T10:39:10;8.98;77.38
68804;SHT31;55787;52.678;13.314;2023-02-20T10:41:52;9.04;77.03
68804;SHT31;55787;52.678;13.314;2023-02-20T10:44:25;9.21;76.54
68804;SHT31;55787;52.678;13.314;2023-02-20T10:47:09;9.32;76.28
68804;SHT31;55787;52.678;13.314;2023-02-20T10:52:30;9.42;76.70
68804;SHT31;55787;52.678;13.314;2023-02-20T10:57:45;9.40;76.73
68804;SHT31;55787;52.678;13.314;2023-02-20T11:00:22;9.43;77.35
68804;SHT31;55787;52.678;13.314;2023-02-20T11:02:56;9.45;77.05
68804;SHT31;55787;52.678;13.314;2023-02-20T11:05:27;9.45;77.66
68804;SHT31;55787;52.678;13.314;2023-02-20T11:07:59;9.47;77.86
68804;SHT31;55787;52.678;13.314;2023-02-20T11:10:26;9.46;77.54
68804;SHT31;55787;52.678;13.314;2023-02-20T11:12:56;9.39;78.14
68804;SHT31;55787;52.678;13.314;2023-02-20T11:15:29;9.42;78.48
68804;SHT31;55787;52.678;13.314;2023-02-20T11:17:58;9.47;78.13
68804;SHT31;55787;52.678;13.314;2023-02-20T11:22:58;9.55;77.90
68804;SHT31;55787;52.678;13.314;2023-02-20T11:25:31;9.56;78.52
68804;SHT31;55787;52.678;13.314;2023-02-20T11:30:41;9.62;78.77
68804;SHT31;55787;52.678;13.314;2023-02-20T11:33:21;9.57;78.57
68804;SHT31;55787;52.678;13.314;2023-02-20T11:35:50;9.52;78.91
68804;SHT31;55787;52.678;13.314;2023-02-20T11:43:43;9.42;79.70
68804;SHT31;55787;52.678;13.314;2023-02-20T11:46:26;9.49;79.67
68804;SHT31;55787;52.678;13.314;2023-02-20T11:49:09;9.50;80.02
68804;SHT31;55787;52.678;13.314;2023-02-20T11:51:41;9.55;80.28
68804;SHT31;55787;52.678;13.314;2023-02-20T11:59:28;9.40;80.14
68804;SHT31;55787;52.678;13.314;2023-02-20T12:01:54;9.47;80.58
68804;SHT31;55787;52.678;13.314;2023-02-20T12:04:35;9.49;80.59
68804;SHT31;55787;52.678;13.314;2023-02-20T12:09:49;9.47;80.69
68804;SHT31;55787;52.678;13.314;2023-02-20T12:12:16;9.55;80.69
68804;SHT31;55787;52.678;13.314;2023-02-20T12:14:43;9.56;80.78
68804;SHT31;55787;52.678;13.314;2023-02-20T12:17:44;9.56;80.83
68804;SHT31;55787;52.678;13.314;2023-02-20T12:20:18;9.50;80.85
68804;SHT31;55787;52.678;13.314;2023-02-20T12:23:03;9.47;80.88
68804;SHT31;55787;52.678;13.314;2023-02-20T12:26:05;9.53;80.80
68804;SHT31;55787;52.678;13.314;2023-02-20T12:40:08;9.49;81.18
68804;SHT31;55787;52.678;13.314;2023-02-20T12:45:26;9.52;81.12
68804;SHT31;55787;52.678;13.314;2023-02-20T12:50:45;9.45;81.98
68804;SHT31;55787;52.678;13.314;2023-02-20T12:53:42;9.31;82.29
68804;SHT31;55787;52.678;13.314;2023-02-20T12:58:58;9.25;82.94
68804;SHT31;55787;52.678;13.314;2023-02-20T13:01:27;9.24;83.37
68804;SHT31;55787;52.678;13.314;2023-02-20T13:04:30;9.15;83.36
68804;SHT31;55787;52.678;13.314;2023-02-20T13:07:18;9.15;83.73
68804;SHT31;55787;52.678;13.314;2023-02-20T13:10:02;9.11;84.32
68804;SHT31;55787;52.678;13.314;2023-02-20T13:12:29;9.14;84.81
68804;SHT31;55787;52.678;13.314;2023-02-20T13:18:05;9.11;85.94
68804;SHT31;55787;52.678;13.314;2023-02-20T13:20:52;8.91;86.68
68804;SHT31;55787;52.678;13.314;2023-02-20T13:25:48;8.74;88.14
68804;SHT31;55787;52.678;13.314;2023-02-20T13:47:15;8.43;89.86
68804;SHT31;55787;52.678;13.314;2023-02-20T13:49:54;8.43;89.90
68804;SHT31;55787;52.678;13.314;2023-02-20T13:52:42;8.42;90.14
68804;SHT31;55787;52.678;13.314;2023-02-20T13:57:47;8.52;89.82
68804;SHT31;55787;52.678;13.314;2023-02-20T14:00:28;8.49;89.74
68804;SHT31;55787;52.678;13.314;2023-02-20T14:02:59;8.46;89.43
68804;SHT31;55787;52.678;13.314;2023-02-20T14:05:28;8.44;89.57
68804;SHT31;55787;52.678;13.314;2023-02-20T14:07:56;8.43;89.34
68804;SHT31;55787;52.678;13.314;2023-02-20T14:10:33;8.53;88.88
68804;SHT31;55787;52.678;13.314;2023-02-20T14:15:29;8.54;88.62
68804;SHT31;55787;52.678;13.314;2023-02-20T14:17:58;8.63;88.49
68804;SHT31;55787;52.678;13.314;2023-02-20T14:20:35;8.57;88.33
68804;SHT31;55787;52.678;13.314;2023-02-20T14:23:20;8.57;88.32
68804;SHT31;55787;52.678;13.314;2023-02-20T14:25:58;8.73;87.99
68804;SHT31;55787;52.678;13.314;2023-02-20T14:28:32;8.65;88.06
68804;SHT31;55787;52.678;13.314;2023-02-20T14:33:39;8.61;87.88
68804;SHT31;55787;52.678;13.314;2023-02-20T14:36:17;8.63;87.87
68804;SHT31;55787;52.678;13.314;2023-02-20T14:41:32;8.80;86.84
68804;SHT31;55787;52.678;13.314;2023-02-20T14:44:01;8.85;86.56
68804;SHT31;55787;52.678;13.314;2023-02-20T14:46:29;8.85;86.47
68804;SHT31;55787;52.678;13.314;2023-02-20T14:49:12;8.78;86.51
68804;SHT31;55787;52.678;13.314;2023-02-20T14:51:39;8.89;86.18
68804;SHT31;55787;52.678;13.314;2023-02-20T14:54:21;8.95;86.31
68804;SHT31;55787;52.678;13.314;2023-02-20T14:56:49;8.95;86.19
68804;SHT31;55787;52.678;13.314;2023-02-20T14:59:22;8.89;85.84
68804;SHT31;55787;52.678;13.314;2023-02-20T15:02:01;8.95;85.84
68804;SHT31;55787;52.678;13.314;2023-02-20T15:04:29;8.91;85.59
68804;SHT31;55787;52.678;13.314;2023-02-20T15:07:03;9.00;85.43
68804;SHT31;55787;52.678;13.314;2023-02-20T15:09:40;8.97;85.32
68804;SHT31;55787;52.678;13.314;2023-02-20T15:12:27;9.01;85.26
68804;SHT31;55787;52.678;13.314;2023-02-20T15:15:00;8.95;85.42
68804;SHT31;55787;52.678;13.314;2023-02-20T15:17:30;8.94;85.42
68804;SHT31;55787;52.678;13.314;2023-02-20T15:19:57;9.05;85.11
68804;SHT31;55787;52.678;13.314;2023-02-20T15:22:33;9.04;85.24
68804;SHT31;55787;52.678;13.314;2023-02-20T15:25:27;9.01;85.25
68804;SHT31;55787;52.678;13.314;2023-02-20T15:28:08;9.07;85.42
68804;SHT31;55787;52.678;13.314;2023-02-20T15:31:11;9.02;85.23
68804;SHT31;55787;52.678;13.314;2023-02-20T15:33:47;8.98;85.62
68804;SHT31;55787;52.678;13.314;2023-02-20T15:36:19;8.98;85.70
68804;SHT31;55787;52.678;13.314;2023-02-20T15:38:46;9.02;86.09
68804;SHT31;55787;52.678;13.314;2023-02-20T15:41:12;9.01;86.32
68804;SHT31;55787;52.678;13.314;2023-02-20T15:43:39;8.92;86.38
68804;SHT31;55787;52.678;13.314;2023-02-20T15:46:17;8.91;86.67
68804;SHT31;55787;52.678;13.314;2023-02-20T15:48:45;8.88;86.91
68804;SHT31;55787;52.678;13.314;2023-02-20T15:51:18;8.89;86.85
68804;SHT31;55787;52.678;13.314;2023-02-20T15:53:46;8.89;87.07
68804;SHT31;55787;52.678;13.314;2023-02-20T15:56:14;8.92;87.18
68804;SHT31;55787;52.678;13.314;2023-02-20T15:58:42;8.89;87.14
68804;SHT31;55787;52.678;13.314;2023-02-20T16:01:09;8.85;87.66
68804;SHT31;55787;52.678;13.314;2023-02-20T16:03:37;8.89;87.94
68804;SHT31;55787;52.678;13.314;2023-02-20T16:06:17;8.80;88.23
68804;SHT31;55787;52.678;13.314;2023-02-20T16:08:45;8.75;88.66
68804;SHT31;55787;52.678;13.314;2023-02-20T16:11:12;8.78;88.82
68804;SHT31;55787;52.678;13.314;2023-02-20T16:13:41;8.71;89.12
68804;SHT31;55787;52.678;13.314;2023-02-20T16:16:18;8.64;89.57
68804;SHT31;55787;52.678;13.314;2023-02-20T16:18:51;8.56;90.17
68804;SHT31;55787;52.678;13.314;2023-02-20T16:21:21;8.54;90.85
68804;SHT31;55787;52.678;13.314;2023-02-20T16:23:49;8.54;91.01
68804;SHT31;55787;52.678;13.314;2023-02-20T16:26:21;8.50;91.18
68804;SHT31;55787;52.678;13.314;2023-02-20T16:28:59;8.54;91.24
68804;SHT31;55787;52.678;13.314;2023-02-20T16:36:48;8.44;92.01
68804;SHT31;55787;52.678;13.314;2023-02-20T16:39:14;8.36;92.70
68804;SHT31;55787;52.678;13.314;2023-02-20T16:41:51;8.42;92.74
68804;SHT31;55787;52.678;13.314;2023-02-20T16:44:40;8.39;92.87
68804;SHT31;55787;52.678;13.314;2023-02-20T16:47:12;8.30;93.71
68804;SHT31;55787;52.678;13.314;2023-02-20T16:49:39;8.22;94.18
68804;SHT31;55787;52.678;13.314;2023-02-20T16:52:25;8.26;94.27
68804;SHT31;55787;52.678;13.314;2023-02-20T16:54:53;8.21;94.64
68804;SHT31;55787;52.678;13.314;2023-02-20T16:57:21;8.22;94.76
68804;SHT31;55787;52.678;13.314;2023-02-20T16:59:51;8.19;95.03
68804;SHT31;55787;52.678;13.314;2023-02-20T17:02:26;8.17;95.19
68804;SHT31;55787;52.678;13.314;2023-02-20T17:04:54;8.19;95.19
68804;SHT31;55787;52.678;13.314;2023-02-20T17:07:21;8.23;95.28
68804;SHT31;55787;52.678;13.314;2023-02-20T17:09:48;8.21;95.36
68804;SHT31;55787;52.678;13.314;2023-02-20T17:12:18;8.10;95.55
68804;SHT31;55787;52.678;13.314;2023-02-20T17:14:46;8.22;95.57
68804;SHT31;55787;52.678;13.314;2023-02-20T17:17:13;8.10;95.97
68804;SHT31;55787;52.678;13.314;2023-02-20T17:19:41;8.10;96.10
68804;SHT31;55787;52.678;13.314;2023-02-20T17:22:08;8.09;96.26
68804;SHT31;55787;52.678;13.314;2023-02-20T17:24:39;8.09;96.50
68804;SHT31;55787;52.678;13.314;2023-02-20T17:27:06;8.03;96.75
68804;SHT31;55787;52.678;13.314;2023-02-20T17:29:33;7.96;97.12
68804;SHT31;55787;52.678;13.314;2023-02-20T17:32:00;7.94;97.38
68804;SHT31;55787;52.678;13.314;2023-02-20T17:34:26;7.95;97.43
68804;SHT31;55787;52.678;13.314;2023-02-20T17:36:54;7.95;97.36
68804;SHT31;55787;52.678;13.314;2023-02-20T17:39:22;7.92;97.72
68804;SHT31;55787;52.678;13.314;2023-02-20T17:41:51;7.94;97.65
68804;SHT31;55787;52.678;13.314;2023-02-20T17:44:24;7.92;97.81
68804;SHT31;55787;52.678;13.314;2023-02-20T17:46:53;7.91;97.70
68804;SHT31;55787;52.678;13.314;2023-02-20T17:49:20;7.89;97.94
68804;SHT31;55787;52.678;13.314;2023-02-20T17:51:50;7.94;97.70
68804;SHT31;55787;52.678;13.314;2023-02-20T17:54:17;7.99;97.28
68804;SHT31;55787;52.678;13.314;2023-02-20T17:56:49;7.91;97.72
68804;SHT31;55787;52.678;13.314;2023-02-20T17:59:17;7.92;97.85